Time;durP1;ratioP1;P1;durP2;ratioP2;P2;SDS_P1;SDS_P2;PMS_P1;PMS_P2;Temp;Humidity;BMP_temperature;BMP_pressure;BME280_temperature;BME280_humidity;BME280_pressure;Samples;Min_cycle;Max_cycle;Signal;HPM_P1;HPM_P2
2023/05/08 00:01:00;;;;;;;5.30;2.80;;;;;;;;;;4948297;28;92692;-78
2023/05/08 00:03:26;;;;;;;4.53;2.65;;;;;;;;;;4951577;28;93559;-78
2023/05/08 00:05:54;;;;;;;6.60;2.60;;;;;;;;;;4947791;28;93873;-78
2023/05/08 00:08:21;;;;;;;4.10;2.50;;;;;;;;;;4948237;28;92188;-79
2023/05/08 00:10:48;;;;;;;6.55;3.08;;;;;;;;;;4947990;28;92575;-79
2023/05/08 00:13:14;;;;;;;4.50;2.67;;;;;;;;;;4946716;28;93006;-78
2023/05/08 00:15:41;;;;;;;4.75;2.50;;;;;;;;;;4947288;28;95994;-78
2023/05/08 00:18:08;;;;;;;4.80;2.78;;;;;;;;;;4946242;28;92634;-79
2023/05/08 00:20:34;;;;;;;6.13;2.88;;;;;;;;;;4947264;28;92907;-79
2023/05/08 00:23:01;;;;;;;5.88;3.40;;;;;;;;;;4949374;28;93056;-79
2023/05/08 00:25:27;;;;;;;6.32;2.70;;;;;;;;;;4950341;28;92554;-78
2023/05/08 00:27:53;;;;;;;4.88;2.70;;;;;;;;;;4948646;28;93124;-78
2023/05/08 00:30:21;;;;;;;4.70;2.65;;;;;;;;;;4948727;28;92464;-79
2023/05/08 00:32:47;;;;;;;5.32;3.00;;;;;;;;;;4951143;28;92695;-79
2023/05/08 00:35:14;;;;;;;3.88;2.47;;;;;;;;;;4951192;28;93026;-79
2023/05/08 00:37:40;;;;;;;7.15;3.30;;;;;;;;;;4951430;28;92761;-78
2023/05/08 00:40:08;;;;;;;6.05;3.20;;;;;;;;;;4948980;28;95771;-79
2023/05/08 00:42:35;;;;;;;9.10;4.03;;;;;;;;;;4934498;28;94692;-78
2023/05/08 00:45:02;;;;;;;10.23;3.45;;;;;;;;;;4952051;28;92357;-78
2023/05/08 00:47:29;;;;;;;6.88;3.65;;;;;;;;;;4956479;28;92470;-78
2023/05/08 00:49:56;;;;;;;7.10;4.47;;;;;;;;;;4936991;28;92596;-77
2023/05/08 00:52:22;;;;;;;7.57;3.50;;;;;;;;;;4967954;28;92775;-77
2023/05/08 00:54:49;;;;;;;7.57;4.20;;;;;;;;;;4966651;28;93118;-78
2023/05/08 00:57:15;;;;;;;6.43;3.58;;;;;;;;;;4954501;28;91767;-78
2023/05/08 00:59:44;;;;;;;6.32;3.40;;;;;;;;;;4947305;28;93509;-78
2023/05/08 01:02:10;;;;;;;7.75;3.72;;;;;;;;;;4946584;28;94044;-78
2023/05/08 01:04:38;;;;;;;6.13;3.42;;;;;;;;;;4942523;28;95039;-77
2023/05/08 01:07:04;;;;;;;6.40;3.67;;;;;;;;;;4949730;28;95057;-78
2023/05/08 01:09:31;;;;;;;6.13;3.60;;;;;;;;;;4946079;28;92575;-78
2023/05/08 01:12:16;;;;;;;8.40;3.90;;;;;;;;;;4948832;28;95828;-77
2023/05/08 01:14:51;;;;;;;7.03;4.13;;;;;;;;;;4941447;28;96084;-77
2023/05/08 01:17:31;;;;;;;7.38;3.97;;;;;;;;;;4949393;28;92497;-78
2023/05/08 01:20:04;;;;;;;8.77;3.65;;;;;;;;;;4951438;28;92995;-78
2023/05/08 01:22:49;;;;;;;8.25;3.60;;;;;;;;;;4948868;28;93447;-78
2023/05/08 01:25:35;;;;;;;9.90;3.95;;;;;;;;;;4949284;28;92532;-79
2023/05/08 01:28:11;;;;;;;7.93;3.60;;;;;;;;;;4951062;28;92810;-78
2023/05/08 01:30:40;;;;;;;7.72;3.63;;;;;;;;;;4949488;28;98194;-78
2023/05/08 01:33:09;;;;;;;6.63;3.75;;;;;;;;;;4950445;28;94036;-78
2023/05/08 01:35:41;;;;;;;6.63;3.63;;;;;;;;;;4951042;28;93386;-78
2023/05/08 01:38:17;;;;;;;5.97;3.40;;;;;;;;;;4947816;28;92799;-78
2023/05/08 01:40:55;;;;;;;7.45;3.80;;;;;;;;;;4948387;28;95729;-78
2023/05/08 01:43:30;;;;;;;5.65;3.20;;;;;;;;;;4950162;28;93568;-79
2023/05/08 01:45:58;;;;;;;6.10;3.28;;;;;;;;;;4950999;28;92469;-79
2023/05/08 01:48:31;;;;;;;8.43;3.47;;;;;;;;;;4950909;28;93611;-78
2023/05/08 01:50:58;;;;;;;;;;;;;;;;;;4964062;28;95792;-78
2023/05/08 01:53:28;;;;;;;6.10;3.13;;;;;;;;;;4966945;28;93056;-79
2023/05/08 01:55:56;;;;;;;5.65;3.08;;;;;;;;;;4965233;28;98515;-79
2023/05/08 01:58:24;;;;;;;4.88;2.83;;;;;;;;;;4935008;28;93116;-78
2023/05/08 02:00:51;;;;;;;5.43;2.83;;;;;;;;;;4968781;28;95422;-79
2023/05/08 02:03:18;;;;;;;;;;;;;;;;;;4968633;28;94451;-78
2023/05/08 02:05:45;;;;;;;7.57;3.20;;;;;;;;;;4958988;28;102209;-78
2023/05/08 02:08:12;;;;;;;;;;;;;;;;;;4950996;28;92829;-79
2023/05/08 02:10:41;;;;;;;5.38;3.00;;;;;;;;;;4969230;28;94044;-78
2023/05/08 02:13:08;;;;;;;6.80;3.05;;;;;;;;;;4954395;28;91846;-78
2023/05/08 02:15:36;;;;;;;6.45;3.75;;;;;;;;;;4951772;28;93415;-78
2023/05/08 02:18:07;;;;;;;5.32;2.92;;;;;;;;;;4948005;28;92543;-78
2023/05/08 02:20:34;;;;;;;5.65;3.30;;;;;;;;;;4937997;28;94862;-78
2023/05/08 02:23:01;;;;;;;5.20;3.00;;;;;;;;;;4948122;28;93364;-79
2023/05/08 02:25:29;;;;;;;5.60;3.22;;;;;;;;;;4949978;28;92517;-79
2023/05/08 02:27:56;;;;;;;5.68;3.33;;;;;;;;;;4949992;28;92493;-79
2023/05/08 02:30:24;;;;;;;5.63;3.03;;;;;;;;;;4949282;28;93237;-79
2023/05/08 02:32:52;;;;;;;5.57;3.10;;;;;;;;;;4929586;28;92605;-78
2023/05/08 02:35:19;;;;;;;5.47;3.10;;;;;;;;;;4961060;28;92998;-78
2023/05/08 02:37:48;;;;;;;4.72;3.05;;;;;;;;;;4951680;28;91928;-79
2023/05/08 02:40:16;;;;;;;7.63;3.75;;;;;;;;;;4947737;28;95563;-77
2023/05/08 02:42:43;;;;;;;5.68;2.78;;;;;;;;;;4946063;28;96185;-78
2023/05/08 02:45:11;;;;;;;6.40;3.22;;;;;;;;;;4953315;28;94960;-78
2023/05/08 02:47:40;;;;;;;4.50;2.95;;;;;;;;;;4953687;28;97576;-78
2023/05/08 02:50:13;;;;;;;5.90;3.10;;;;;;;;;;4951532;28;94231;-79
2023/05/08 02:52:40;;;;;;;;;;;;;;;;;;4966569;28;92600;-78
2023/05/08 02:55:19;;;;;;;5.80;2.95;;;;;;;;;;4968834;28;103951;-78
2023/05/08 02:57:49;;;;;;;6.80;2.97;;;;;;;;;;4958576;28;92887;-78
2023/05/08 03:00:21;;;;;;;5.20;3.38;;;;;;;;;;4950944;28;92921;-78
2023/05/08 03:03:10;;;;;;;5.85;3.13;;;;;;;;;;4950268;28;98432;-78
2023/05/08 03:05:38;;;;;;;12.93;3.50;;;;;;;;;;4960628;28;92618;-77
2023/05/08 03:08:04;;;;;;;;;;;;;;;;;;4944200;28;93349;-78
2023/05/08 03:10:32;;;;;;;5.22;2.92;;;;;;;;;;4946891;28;97992;-78
2023/05/08 03:13:02;;;;;;;5.32;3.20;;;;;;;;;;4949421;28;92466;-77
2023/05/08 03:15:31;;;;;;;5.05;2.95;;;;;;;;;;4948895;28;94267;-77
2023/05/08 03:18:01;;;;;;;6.95;3.03;;;;;;;;;;4947222;28;95972;-79
2023/05/08 03:20:31;;;;;;;5.70;2.90;;;;;;;;;;4951795;28;92489;-79
2023/05/08 03:22:58;;;;;;;7.75;2.80;;;;;;;;;;4948706;28;93231;-79
2023/05/08 03:25:24;;;;;;;;;;;;;;;;;;4949809;28;92793;-79
2023/05/08 03:27:51;;;;;;;6.75;3.00;;;;;;;;;;4950949;28;103611;-79
2023/05/08 03:30:19;;;;;;;4.95;3.20;;;;;;;;;;4946950;28;95879;-79
2023/05/08 03:32:57;;;;;;;5.45;2.88;;;;;;;;;;4945692;28;94538;-79
2023/05/08 03:35:24;;;;;;;5.82;3.10;;;;;;;;;;4943310;28;94968;-78
2023/05/08 03:37:51;;;;;;;;;;;;;;;;;;4949100;28;94153;-79
2023/05/08 03:40:17;;;;;;;5.43;3.25;;;;;;;;;;4949026;28;96837;-79
2023/05/08 03:42:44;;;;;;;5.00;2.80;;;;;;;;;;4949076;28;95336;-78
2023/05/08 03:45:12;;;;;;;9.93;3.05;;;;;;;;;;4952334;28;92429;-78
2023/05/08 03:47:39;;;;;;;6.45;2.58;;;;;;;;;;4961738;28;92679;-78
2023/05/08 03:50:08;;;;;;;5.15;3.10;;;;;;;;;;4966338;28;95514;-78
2023/05/08 03:52:35;;;;;;;6.28;2.88;;;;;;;;;;4966647;28;98627;-78
2023/05/08 03:55:02;;;;;;;10.15;2.90;;;;;;;;;;4973485;28;93397;-78
2023/05/08 03:57:47;;;;;;;9.13;3.28;;;;;;;;;;4974858;28;94997;-79
2023/05/08 04:00:18;;;;;;;13.43;3.25;;;;;;;;;;4977940;28;94950;-79
2023/05/08 04:02:47;;;;;;;7.95;3.20;;;;;;;;;;4951787;28;100705;-77
2023/05/08 04:05:18;;;;;;;5.50;3.00;;;;;;;;;;4976084;28;92452;-78
2023/05/08 04:08:08;;;;;;;7.50;3.20;;;;;;;;;;4970331;28;95024;-78
2023/05/08 04:10:42;;;;;;;5.80;3.00;;;;;;;;;;4973796;28;92531;-78
2023/05/08 04:13:17;;;;;;;5.68;3.28;;;;;;;;;;4966640;28;92533;-78
2023/05/08 04:15:49;;;;;;;5.47;3.00;;;;;;;;;;4972231;28;93181;-78
2023/05/08 04:18:19;;;;;;;4.47;2.70;;;;;;;;;;4966297;28;94633;-78
2023/05/08 04:20:46;;;;;;;5.13;2.83;;;;;;;;;;4950544;28;92534;-78
2023/05/08 04:23:16;;;;;;;5.78;2.92;;;;;;;;;;4947123;28;94199;-78
2023/05/08 04:25:43;;;;;;;5.47;3.17;;;;;;;;;;4942881;28;98837;-78
2023/05/08 04:28:10;;;;;;;4.70;2.47;;;;;;;;;;4949784;28;93657;-78
2023/05/08 04:30:38;;;;;;;6.18;3.80;;;;;;;;;;4945790;28;95655;-78
2023/05/08 04:33:06;;;;;;;5.85;3.50;;;;;;;;;;4946606;28;92503;-78
2023/05/08 04:35:33;;;;;;;5.90;3.10;;;;;;;;;;4946221;28;95827;-78
2023/05/08 04:38:01;;;;;;;4.28;2.75;;;;;;;;;;4930492;28;95111;-78
2023/05/08 04:40:27;;;;;;;5.68;3.08;;;;;;;;;;4957333;28;92590;-77
2023/05/08 04:42:54;;;;;;;6.32;3.97;;;;;;;;;;4966140;28;95696;-77
2023/05/08 04:45:21;;;;;;;5.82;3.58;;;;;;;;;;4958557;28;95985;-78
2023/05/08 04:47:48;;;;;;;5.15;3.10;;;;;;;;;;4961329;28;92676;-78
2023/05/08 04:50:15;;;;;;;4.68;2.97;;;;;;;;;;4970977;28;95347;-77
2023/05/08 04:52:42;;;;;;;4.70;3.10;;;;;;;;;;4969976;28;92620;-78
2023/05/08 04:55:09;;;;;;;5.18;3.03;;;;;;;;;;4949541;28;94888;-77
2023/05/08 04:57:37;;;;;;;5.47;3.20;;;;;;;;;;4958883;28;94667;-78
2023/05/08 05:00:05;;;;;;;4.47;2.63;;;;;;;;;;4968914;28;92628;-78
2023/05/08 05:02:35;;;;;;;4.22;2.30;;;;;;;;;;4952068;28;95732;-78
2023/05/08 05:05:03;;;;;;;5.85;3.65;;;;;;;;;;4967591;28;93008;-79
2023/05/08 05:07:30;;;;;;;4.68;2.90;;;;;;;;;;4921860;28;93448;-78
2023/05/08 05:09:56;;;;;;;4.53;2.60;;;;;;;;;;4943403;28;94747;-77
2023/05/08 05:12:23;;;;;;;4.28;2.63;;;;;;;;;;4961364;28;95838;-77
2023/05/08 05:14:50;;;;;;;5.72;2.63;;;;;;;;;;4938946;28;95651;-77
2023/05/08 05:17:17;;;;;;;5.40;3.13;;;;;;;;;;4950540;28;93041;-77
2023/05/08 05:19:43;;;;;;;4.72;2.80;;;;;;;;;;4950825;28;92539;-77
2023/05/08 05:22:10;;;;;;;4.68;2.72;;;;;;;;;;4946234;28;92636;-77
2023/05/08 05:24:38;;;;;;;4.85;2.80;;;;;;;;;;4950122;28;95587;-77
2023/05/08 05:27:05;;;;;;;4.00;2.30;;;;;;;;;;4949146;28;92490;-77
2023/05/08 05:29:31;;;;;;;5.55;2.45;;;;;;;;;;4949530;28;94314;-77
2023/05/08 05:31:58;;;;;;;5.25;3.10;;;;;;;;;;4952731;28;94941;-77
2023/05/08 05:34:24;;;;;;;4.68;2.70;;;;;;;;;;4948213;28;94630;-77
2023/05/08 05:36:51;;;;;;;5.05;2.55;;;;;;;;;;4948319;28;95921;-77
2023/05/08 05:39:18;;;;;;;5.03;2.90;;;;;;;;;;4947986;28;95229;-78
2023/05/08 05:41:47;;;;;;;7.00;3.20;;;;;;;;;;4950224;28;97429;-77
2023/05/08 05:44:13;;;;;;;3.83;2.35;;;;;;;;;;4951875;28;93266;-76
2023/05/08 05:46:40;;;;;;;3.80;2.35;;;;;;;;;;4948460;28;99896;-77
2023/05/08 05:49:11;;;;;;;4.65;2.45;;;;;;;;;;4944224;28;95566;-77
2023/05/08 05:51:37;;;;;;;4.32;2.17;;;;;;;;;;4947321;28;95469;-77
2023/05/08 05:54:04;;;;;;;5.20;2.45;;;;;;;;;;4935592;28;92546;-77
2023/05/08 05:56:30;;;;;;;3.75;2.20;;;;;;;;;;4947301;28;95360;-77
2023/05/08 05:58:57;;;;;;;4.00;2.30;;;;;;;;;;4948557;28;92561;-77
2023/05/08 06:01:24;;;;;;;;;;;;;;;;;;4947916;28;95827;-77
2023/05/08 06:03:51;;;;;;;3.83;2.35;;;;;;;;;;4931663;28;97968;-77
2023/05/08 06:06:18;;;;;;;4.60;2.40;;;;;;;;;;4950320;28;92909;-77
2023/05/08 06:08:46;;;;;;;6.57;3.00;;;;;;;;;;4948820;28;98529;-77
2023/05/08 06:11:12;;;;;;;6.63;2.95;;;;;;;;;;4948148;28;93895;-78
2023/05/08 06:13:43;;;;;;;5.18;3.00;;;;;;;;;;4934246;28;92583;-78
2023/05/08 06:16:30;;;;;;;5.55;2.92;;;;;;;;;;4957254;28;93003;-77
2023/05/08 06:18:58;;;;;;;7.05;3.30;;;;;;;;;;4948508;28;93054;-77
2023/05/08 06:21:25;;;;;;;6.60;3.17;;;;;;;;;;4951900;28;92836;-76
2023/05/08 06:23:52;;;;;;;6.65;3.47;;;;;;;;;;4949442;28;96311;-77
2023/05/08 06:26:18;;;;;;;7.63;3.72;;;;;;;;;;4950310;28;93072;-78
2023/05/08 06:28:48;;;;;;;8.32;4.20;;;;;;;;;;4948481;28;98004;-77
2023/05/08 06:31:17;;;;;;;7.65;4.00;;;;;;;;;;4946439;28;92942;-77
2023/05/08 06:33:45;;;;;;;7.88;4.32;;;;;;;;;;4959430;28;92758;-78
2023/05/08 06:36:11;;;;;;;9.00;4.38;;;;;;;;;;4967222;28;95864;-78
2023/05/08 06:38:38;;;;;;;7.65;4.50;;;;;;;;;;4969026;28;92928;-78
2023/05/08 06:41:05;;;;;;;10.57;4.93;;;;;;;;;;4946923;28;95060;-76
2023/05/08 06:43:31;;;;;;;8.52;5.00;;;;;;;;;;4961553;28;93162;-77
2023/05/08 06:45:58;;;;;;;11.32;5.10;;;;;;;;;;4967789;28;92022;-77
2023/05/08 06:48:27;;;;;;;11.48;5.30;;;;;;;;;;4958749;28;92568;-78
2023/05/08 06:50:55;;;;;;;9.40;5.80;;;;;;;;;;4958551;28;93394;-78
2023/05/08 06:53:21;;;;;;;9.60;5.57;;;;;;;;;;4967094;28;94851;-78
2023/05/08 06:55:48;;;;;;;9.00;5.68;;;;;;;;;;4968318;28;95701;-77
2023/05/08 06:58:15;;;;;;;9.82;5.80;;;;;;;;;;4968355;28;93742;-78
2023/05/08 07:00:41;;;;;;;10.90;6.38;;;;;;;;;;4965364;28;92693;-78
2023/05/08 07:03:09;;;;;;;11.55;6.78;;;;;;;;;;4961033;28;94457;-78
2023/05/08 07:05:35;;;;;;;9.60;5.95;;;;;;;;;;4960418;28;92529;-78
2023/05/08 07:08:02;;;;;;;13.55;8.43;;;;;;;;;;4957317;28;92827;-78
2023/05/08 07:10:29;;;;;;;12.30;7.97;;;;;;;;;;4967364;28;92226;-78
2023/05/08 07:12:55;;;;;;;13.02;7.65;;;;;;;;;;4949956;28;92718;-78
2023/05/08 07:15:22;;;;;;;10.32;6.60;;;;;;;;;;4947172;28;93530;-78
2023/05/08 07:17:52;;;;;;;14.68;8.25;;;;;;;;;;4946589;28;95579;-79
2023/05/08 07:20:20;;;;;;;13.38;7.28;;;;;;;;;;4949473;28;93059;-79
2023/05/08 07:22:47;;;;;;;12.52;8.05;;;;;;;;;;4949707;28;97170;-79
2023/05/08 07:25:13;;;;;;;12.95;8.73;;;;;;;;;;4948507;28;93332;-78
2023/05/08 07:27:40;;;;;;;12.30;7.75;;;;;;;;;;4949185;28;93759;-78
2023/05/08 07:30:07;;;;;;;13.65;8.32;;;;;;;;;;4953118;28;93010;-78
2023/05/08 07:32:34;;;;;;;15.68;8.75;;;;;;;;;;4948538;28;92466;-77
2023/05/08 07:35:01;;;;;;;17.15;9.52;;;;;;;;;;4948237;28;92948;-78
2023/05/08 07:37:28;;;;;;;;;;;;;;;;;;4948393;28;94744;-78
2023/05/08 07:39:54;;;;;;;13.70;8.40;;;;;;;;;;4949159;28;92971;-78
2023/05/08 07:42:21;;;;;;;16.85;10.43;;;;;;;;;;4941440;28;94878;-78
2023/05/08 07:44:47;;;;;;;11.70;6.60;;;;;;;;;;4943157;28;92515;-78
2023/05/08 07:47:20;;;;;;;16.80;9.10;;;;;;;;;;4946003;28;94338;-78
2023/05/08 07:49:47;;;;;;;11.70;6.90;;;;;;;;;;4948236;28;92952;-79
2023/05/08 07:52:13;;;;;;;15.75;10.55;;;;;;;;;;4947321;28;92980;-78
2023/05/08 07:54:40;;;;;;;17.58;11.70;;;;;;;;;;4945358;28;93345;-78
2023/05/08 07:57:06;;;;;;;15.73;9.23;;;;;;;;;;4947186;28;93445;-79
2023/05/08 07:59:33;;;;;;;10.73;6.63;;;;;;;;;;4948505;28;91700;-79
2023/05/08 08:01:59;;;;;;;8.02;4.47;;;;;;;;;;4949410;28;92474;-78
2023/05/08 08:04:29;;;;;;;13.07;7.65;;;;;;;;;;4953035;28;93235;-79
2023/05/08 08:06:56;;;;;;;18.75;12.95;;;;;;;;;;4944738;28;95890;-79
2023/05/08 08:09:22;;;;;;;16.85;11.13;;;;;;;;;;4946252;28;93087;-78
2023/05/08 08:11:49;;;;;;;15.70;10.15;;;;;;;;;;4945856;28;92615;-79
2023/05/08 08:14:16;;;;;;;20.30;12.73;;;;;;;;;;4945842;28;94076;-79
2023/05/08 08:16:42;;;;;;;18.83;12.18;;;;;;;;;;4945735;28;94262;-78
2023/05/08 08:19:09;;;;;;;17.17;11.70;;;;;;;;;;4947082;28;92409;-79
2023/05/08 08:21:40;;;;;;;20.15;13.82;;;;;;;;;;4950457;28;92910;-79
2023/05/08 08:24:07;;;;;;;17.00;11.02;;;;;;;;;;4950685;28;92884;-79
2023/05/08 08:26:34;;;;;;;19.40;12.98;;;;;;;;;;4951835;28;92986;-78
2023/05/08 08:29:01;;;;;;;18.83;12.48;;;;;;;;;;4951095;28;93015;-79
2023/05/08 08:31:27;;;;;;;19.23;12.63;;;;;;;;;;4947376;28;95285;-79
2023/05/08 08:33:54;;;;;;;12.70;7.82;;;;;;;;;;4949673;28;96340;-78
2023/05/08 08:36:20;;;;;;;12.30;7.65;;;;;;;;;;4948926;28;94605;-78
2023/05/08 08:38:47;;;;;;;17.67;11.57;;;;;;;;;;4947533;28;92506;-79
2023/05/08 08:41:14;;;;;;;13.15;8.15;;;;;;;;;;4947568;28;92885;-79
2023/05/08 08:43:42;;;;;;;18.48;12.18;;;;;;;;;;4951003;28;93119;-79
2023/05/08 08:46:15;;;;;;;18.52;13.02;;;;;;;;;;4934480;28;94229;-79
2023/05/08 08:48:42;;;;;;;;;;;;;;;;;;4954495;28;93820;-79
2023/05/08 08:51:13;;;;;;;21.10;15.10;;;;;;;;;;4949675;28;112879;-79
2023/05/08 08:53:42;;;;;;;15.30;10.57;;;;;;;;;;4948915;28;95775;-79
2023/05/08 08:56:10;;;;;;;19.08;13.45;;;;;;;;;;4944898;28;97656;-79
2023/05/08 08:58:39;;;;;;;20.92;14.35;;;;;;;;;;4948851;28;92994;-79
2023/05/08 09:01:06;;;;;;;22.02;14.95;;;;;;;;;;4946616;28;95570;-81
2023/05/08 09:03:33;;;;;;;24.15;14.60;;;;;;;;;;4948425;28;93758;-80
2023/05/08 09:06:00;;;;;;;21.13;14.60;;;;;;;;;;4947141;28;92831;-80
2023/05/08 09:08:27;;;;;;;15.30;10.43;;;;;;;;;;4947209;28;92971;-80
2023/05/08 09:10:54;;;;;;;20.05;13.10;;;;;;;;;;4950406;28;93341;-80
2023/05/08 09:13:21;;;;;;;19.98;13.77;;;;;;;;;;4948074;28;93405;-80
2023/05/08 09:15:49;;;;;;;21.42;14.55;;;;;;;;;;4952779;28;94480;-79
2023/05/08 09:18:16;;;;;;;18.95;12.85;;;;;;;;;;4968861;28;92813;-78
2023/05/08 09:20:43;;;;;;;17.77;12.43;;;;;;;;;;4965383;28;95328;-79
2023/05/08 09:23:10;;;;;;;19.83;13.95;;;;;;;;;;4966472;28;96351;-79
2023/05/08 09:25:42;;;;;;;20.58;14.40;;;;;;;;;;4955273;28;92660;-79
2023/05/08 09:28:18;;;;;;;29.08;14.93;;;;;;;;;;4948005;28;93914;-79
2023/05/08 09:30:55;;;;;;;22.08;15.18;;;;;;;;;;4947349;28;92957;-80
2023/05/08 09:33:23;;;;;;;24.40;15.98;;;;;;;;;;4953097;28;92390;-79
2023/05/08 09:35:49;;;;;;;;;;;;;;;;;;4944515;28;94673;-80
2023/05/08 09:38:34;;;;;;;21.00;14.52;;;;;;;;;;4951296;28;101937;-79
2023/05/08 09:41:07;;;;;;;21.63;14.30;;;;;;;;;;4948758;28;96757;-79
2023/05/08 09:43:34;;;;;;;23.92;15.38;;;;;;;;;;4953864;28;92926;-79
2023/05/08 09:46:16;;;;;;;23.20;14.35;;;;;;;;;;4954539;28;95264;-80
2023/05/08 09:48:44;;;;;;;23.13;15.48;;;;;;;;;;4951095;28;95264;-79
2023/05/08 09:51:11;;;;;;;23.58;15.75;;;;;;;;;;4968591;28;93477;-79
2023/05/08 09:53:37;;;;;;;23.83;15.82;;;;;;;;;;4972360;28;92411;-79
2023/05/08 09:56:05;;;;;;;18.60;11.82;;;;;;;;;;4968512;28;93230;-81
2023/05/08 09:58:38;;;;;;;21.98;13.82;;;;;;;;;;4949515;28;93040;-79
2023/05/08 10:01:05;;;;;;;20.23;12.27;;;;;;;;;;4947558;28;92907;-80
2023/05/08 10:03:47;;;;;;;22.40;14.90;;;;;;;;;;4943655;28;92955;-80
2023/05/08 10:06:15;;;;;;;26.52;17.42;;;;;;;;;;4947796;28;93231;-80
2023/05/08 10:08:41;;;;;;;23.15;15.20;;;;;;;;;;4949033;28;92924;-80
2023/05/08 10:11:15;;;;;;;25.60;16.45;;;;;;;;;;4946332;28;95457;-79
2023/05/08 10:13:42;;;;;;;25.33;16.00;;;;;;;;;;4947703;28;92789;-80
2023/05/08 10:16:16;;;;;;;32.15;18.70;;;;;;;;;;4952159;28;93843;-80
2023/05/08 10:18:49;;;;;;;33.13;19.03;;;;;;;;;;4945948;28;92945;-81
2023/05/08 10:21:19;;;;;;;35.10;20.95;;;;;;;;;;4951189;28;93379;-80
2023/05/08 10:23:47;;;;;;;35.47;21.63;;;;;;;;;;4955657;28;92403;-80
2023/05/08 10:26:23;;;;;;;36.25;21.15;;;;;;;;;;4945159;28;92530;-81
2023/05/08 10:29:05;;;;;;;40.17;22.02;;;;;;;;;;4967840;28;97369;-80
2023/05/08 10:31:35;;;;;;;36.60;20.48;;;;;;;;;;4965092;28;95464;-79
2023/05/08 10:34:02;;;;;;;39.50;23.15;;;;;;;;;;4970069;28;92442;-80
2023/05/08 10:36:29;;;;;;;40.40;24.17;;;;;;;;;;4967300;28;94844;-80
2023/05/08 10:38:57;;;;;;;44.03;24.10;;;;;;;;;;4966732;28;93279;-80
2023/05/08 10:41:24;;;;;;;39.78;21.27;;;;;;;;;;4960844;28;94869;-80
2023/05/08 10:43:52;;;;;;;36.97;21.08;;;;;;;;;;4947696;28;96156;-80
2023/05/08 10:46:21;;;;;;;39.00;21.20;;;;;;;;;;4958241;28;92737;-80
2023/05/08 10:48:51;;;;;;;42.70;24.13;;;;;;;;;;4967797;28;99578;-80
2023/05/08 10:51:17;;;;;;;37.63;22.23;;;;;;;;;;4968663;28;93127;-80
2023/05/08 10:53:52;;;;;;;37.40;22.05;;;;;;;;;;4970817;28;92242;-81
2023/05/08 10:56:25;;;;;;;49.85;28.23;;;;;;;;;;4966974;28;92800;-81
2023/05/08 10:58:55;;;;;;;52.88;28.90;;;;;;;;;;4962928;28;96497;-81
2023/05/08 11:01:22;;;;;;;53.75;29.02;;;;;;;;;;4982126;28;94945;-80
2023/05/08 11:03:51;;;;;;;42.17;22.27;;;;;;;;;;4965671;28;96016;-78
2023/05/08 11:06:38;;;;;;;36.75;20.83;;;;;;;;;;4952699;28;93587;-78
2023/05/08 11:09:05;;;;;;;36.20;19.98;;;;;;;;;;4962558;28;98864;-79
2023/05/08 11:11:37;;;;;;;34.80;16.80;;;;;;;;;;4960269;28;93689;-79
2023/05/08 11:14:03;;;;;;;30.80;16.08;;;;;;;;;;4963587;28;92632;-78
2023/05/08 11:16:48;;;;;;;26.50;15.10;;;;;;;;;;4961891;28;93323;-78
2023/05/08 11:19:15;;;;;;;28.13;15.35;;;;;;;;;;4962852;28;92773;-79
2023/05/08 11:22:01;;;;;;;24.98;13.82;;;;;;;;;;4963006;28;94467;-79
2023/05/08 11:24:37;;;;;;;23.58;12.95;;;;;;;;;;4965808;28;93394;-79
2023/05/08 11:27:03;;;;;;;21.25;12.85;;;;;;;;;;4960111;28;95361;-79
2023/05/08 11:29:30;;;;;;;20.98;12.98;;;;;;;;;;4961906;28;95776;-78
2023/05/08 11:31:56;;;;;;;20.95;12.30;;;;;;;;;;4962503;28;92822;-79
2023/05/08 11:34:41;;;;;;;18.95;11.32;;;;;;;;;;4961189;28;94054;-78
2023/05/08 11:37:09;;;;;;;18.10;11.15;;;;;;;;;;4957745;28;93866;-78
2023/05/08 11:39:36;;;;;;;20.33;11.30;;;;;;;;;;4962475;28;94891;-79
2023/05/08 11:42:32;;;;;;;15.95;10.48;;;;;;;;;;4961315;28;93370;-79
2023/05/08 11:45:08;;;;;;;17.13;10.57;;;;;;;;;;4975529;28;97809;-78
2023/05/08 11:47:42;;;;;;;16.05;10.15;;;;;;;;;;4962188;28;93251;-79
2023/05/08 11:50:10;;;;;;;17.88;10.60;;;;;;;;;;4961834;28;93866;-78
2023/05/08 11:52:40;;;;;;;15.27;9.93;;;;;;;;;;4958740;28;96225;-78
2023/05/08 11:55:08;;;;;;;15.85;9.95;;;;;;;;;;4954828;28;93381;-78
2023/05/08 11:57:34;;;;;;;15.73;9.82;;;;;;;;;;4962472;28;93825;-79
2023/05/08 12:00:04;;;;;;;17.80;9.90;;;;;;;;;;4964412;28;94408;-79
2023/05/08 12:02:41;;;;;;;17.33;10.18;;;;;;;;;;4961765;28;93223;-79
2023/05/08 12:05:10;;;;;;;17.13;10.32;;;;;;;;;;4963207;28;94077;-79
2023/05/08 12:07:45;;;;;;;15.93;9.63;;;;;;;;;;4969212;28;95084;-79
2023/05/08 12:10:12;;;;;;;15.02;9.65;;;;;;;;;;4964837;28;92952;-79
2023/05/08 12:12:41;;;;;;;14.95;9.32;;;;;;;;;;4965870;28;93089;-79
2023/05/08 12:15:08;;;;;;;15.63;9.05;;;;;;;;;;4969096;28;93470;-78
2023/05/08 12:17:35;;;;;;;14.20;9.00;;;;;;;;;;4952490;28;95136;-79
2023/05/08 12:20:17;;;;;;;19.38;11.15;;;;;;;;;;4950401;28;96832;-78
2023/05/08 12:22:51;;;;;;;20.23;10.80;;;;;;;;;;4962572;28;92549;-78
2023/05/08 12:25:18;;;;;;;21.17;11.95;;;;;;;;;;4966617;28;92773;-78
2023/05/08 12:27:44;;;;;;;18.23;10.68;;;;;;;;;;4967626;28;93839;-77
2023/05/08 12:30:12;;;;;;;17.92;9.85;;;;;;;;;;4957028;28;92947;-78
2023/05/08 12:32:40;;;;;;;16.52;10.60;;;;;;;;;;4966742;28;92612;-78
2023/05/08 12:35:07;;;;;;;19.35;11.55;;;;;;;;;;4969439;28;91989;-78
2023/05/08 12:37:33;;;;;;;;;;;;;;;;;;4967444;28;94243;-78
2023/05/08 12:40:00;;;;;;;17.38;9.80;;;;;;;;;;4940262;28;94296;-79
2023/05/08 12:42:43;;;;;;;16.08;9.60;;;;;;;;;;4960620;28;95070;-79
2023/05/08 12:45:19;;;;;;;14.23;8.45;;;;;;;;;;4968052;28;95279;-78
2023/05/08 12:47:49;;;;;;;15.57;9.30;;;;;;;;;;4967240;28;95192;-79
2023/05/08 12:50:16;;;;;;;15.27;8.93;;;;;;;;;;4961528;28;93874;-79
2023/05/08 12:52:43;;;;;;;15.88;9.35;;;;;;;;;;4959239;28;93866;-79
2023/05/08 12:55:23;;;;;;;13.90;8.50;;;;;;;;;;4941731;28;93187;-79
2023/05/08 12:57:57;;;;;;;14.70;9.20;;;;;;;;;;4958650;28;93884;-79
2023/05/08 13:00:24;;;;;;;15.13;9.02;;;;;;;;;;4959087;28;92551;-80
2023/05/08 13:02:52;;;;;;;12.98;8.15;;;;;;;;;;4956842;28;93386;-79
2023/05/08 13:05:22;;;;;;;15.30;8.95;;;;;;;;;;4967015;28;92998;-77
2023/05/08 13:07:50;;;;;;;14.52;9.27;;;;;;;;;;4962259;28;96002;-79
2023/05/08 13:10:20;;;;;;;12.65;7.82;;;;;;;;;;4966117;28;92975;-79
2023/05/08 13:12:49;;;;;;;12.40;7.57;;;;;;;;;;4947869;28;100067;-79
2023/05/08 13:15:16;;;;;;;12.75;7.13;;;;;;;;;;4962089;28;95946;-79
2023/05/08 13:17:42;;;;;;;13.70;8.27;;;;;;;;;;4966374;28;93353;-79
2023/05/08 13:20:10;;;;;;;11.95;7.50;;;;;;;;;;4955878;28;94361;-79
2023/05/08 13:22:37;;;;;;;12.00;7.32;;;;;;;;;;4956037;28;93355;-79
2023/05/08 13:25:03;;;;;;;12.73;7.82;;;;;;;;;;4956603;28;92823;-79
2023/05/08 13:27:30;;;;;;;13.55;8.15;;;;;;;;;;4944690;28;93473;-79
2023/05/08 13:29:56;;;;;;;11.65;7.47;;;;;;;;;;4942103;28;94849;-79
2023/05/08 13:32:23;;;;;;;12.05;6.75;;;;;;;;;;4937405;28;95095;-79
2023/05/08 13:34:50;;;;;;;12.75;7.75;;;;;;;;;;4945496;28;94329;-79
2023/05/08 13:37:21;;;;;;;13.23;7.57;;;;;;;;;;4963732;28;93735;-78
2023/05/08 13:39:48;;;;;;;11.82;7.28;;;;;;;;;;4967239;28;93089;-78
2023/05/08 13:42:14;;;;;;;11.60;7.10;;;;;;;;;;4967139;28;93131;-78
2023/05/08 13:44:41;;;;;;;13.23;7.20;;;;;;;;;;4963547;28;92852;-79
2023/05/08 13:47:08;;;;;;;13.65;8.07;;;;;;;;;;4966521;28;93889;-78
2023/05/08 13:49:34;;;;;;;;;;;;;;;;;;4966591;28;92090;-78
2023/05/08 13:52:01;;;;;;;12.10;6.80;;;;;;;;;;4949538;28;92599;-79
2023/05/08 13:54:28;;;;;;;11.57;6.82;;;;;;;;;;4964022;28;93128;-79
2023/05/08 13:56:55;;;;;;;12.65;7.68;;;;;;;;;;4971156;28;95452;-79
2023/05/08 13:59:21;;;;;;;12.40;7.25;;;;;;;;;;4967871;28;92688;-79
2023/05/08 14:01:48;;;;;;;11.23;6.88;;;;;;;;;;4966855;28;92829;-79
2023/05/08 14:04:14;;;;;;;11.50;7.05;;;;;;;;;;4933645;28;93092;-79
2023/05/08 14:06:41;;;;;;;13.32;7.32;;;;;;;;;;4955862;28;92876;-79
2023/05/08 14:09:07;;;;;;;13.02;6.90;;;;;;;;;;4967944;28;92454;-79
2023/05/08 14:11:34;;;;;;;12.90;7.32;;;;;;;;;;4966131;28;95438;-79
2023/05/08 14:14:01;;;;;;;11.82;7.07;;;;;;;;;;4959147;28;92851;-77
2023/05/08 14:16:27;;;;;;;12.77;7.55;;;;;;;;;;4960594;28;92898;-78
2023/05/08 14:18:54;;;;;;;14.82;8.65;;;;;;;;;;4954095;28;93795;-78
2023/05/08 14:21:21;;;;;;;13.30;7.88;;;;;;;;;;4956606;28;95252;-78
2023/05/08 14:23:47;;;;;;;13.25;7.68;;;;;;;;;;4948111;28;97922;-77
2023/05/08 14:26:14;;;;;;;12.40;7.47;;;;;;;;;;4949453;28;96165;-78
2023/05/08 14:28:42;;;;;;;13.73;7.95;;;;;;;;;;4959317;28;92839;-78
2023/05/08 14:31:09;;;;;;;13.93;8.30;;;;;;;;;;4949263;28;92819;-78
2023/05/08 14:33:35;;;;;;;13.80;7.45;;;;;;;;;;4956951;28;93151;-79
2023/05/08 14:36:02;;;;;;;13.07;7.18;;;;;;;;;;4965635;28;94091;-78
2023/05/08 14:38:28;;;;;;;10.68;6.60;;;;;;;;;;4956957;28;94424;-77
2023/05/08 14:40:55;;;;;;;10.93;6.32;;;;;;;;;;4958848;28;93036;-77
2023/05/08 14:43:22;;;;;;;11.93;6.72;;;;;;;;;;4963223;28;93770;-78
2023/05/08 14:45:48;;;;;;;10.68;6.90;;;;;;;;;;4954866;28;96350;-78